createdAt,value
2023-01-17T00:00:54.155Z,0.70
2023-01-17T00:03:21.722Z,0.10
2023-01-17T00:06:07.310Z,0.10
2023-01-17T00:08:53.331Z,0.10
2023-01-17T00:11:20.440Z,0.35
2023-01-17T00:13:47.744Z,0.10
2023-01-17T00:16:14.929Z,0.20
2023-01-17T00:19:02.158Z,0.20
2023-01-17T00:21:58.945Z,0.20
2023-01-17T00:24:44.975Z,0.10
2023-01-17T00:27:12.109Z,0.17
2023-01-17T00:29:39.296Z,0.20
2023-01-17T00:32:06.564Z,0.10
2023-01-17T00:34:33.754Z,0.30
2023-01-17T00:37:00.987Z,0.10
2023-01-17T00:39:28.098Z,0.28
2023-01-17T00:41:55.230Z,0.25
2023-01-17T00:44:40.950Z,0.20
2023-01-17T00:47:26.799Z,0.10
2023-01-17T00:50:12.606Z,0.20
2023-01-17T00:52:58.313Z,0.25
2023-01-17T00:55:44.129Z,0.40
2023-01-17T00:58:30.057Z,0.57
2023-01-17T01:01:15.825Z,0.20
2023-01-17T01:04:02.021Z,0.25
2023-01-17T01:06:47.884Z,0.55
2023-01-17T01:09:33.940Z,0.20
2023-01-17T01:12:19.791Z,0.10
2023-01-17T01:15:05.475Z,0.15
2023-01-17T01:17:51.687Z,0.43
2023-01-17T01:20:37.645Z,0.20
2023-01-17T01:23:24.516Z,0.10
2023-01-17T01:26:10.584Z,0.22
2023-01-17T01:28:56.574Z,1.13
2023-01-17T01:31:42.724Z,0.20
2023-01-17T01:34:10.048Z,0.20
2023-01-17T01:36:37.194Z,0.30
2023-01-17T01:39:04.635Z,0.60
2023-01-17T01:41:31.748Z,0.20
2023-01-17T01:43:58.985Z,0.22
2023-01-17T01:46:41.850Z,1.38
2023-01-17T01:49:16.037Z,0.37
2023-01-17T01:51:45.362Z,0.52
2023-01-17T01:54:14.734Z,0.20
2023-01-17T01:56:42.022Z,0.30
2023-01-17T01:59:10.749Z,1.08
2023-01-17T02:01:38.294Z,1.30
2023-01-17T02:04:09.886Z,0.50
2023-01-17T02:06:42.320Z,0.45
2023-01-17T02:09:12.006Z,0.80
2023-01-17T02:11:39.541Z,0.52
2023-01-17T02:14:06.791Z,1.30
2023-01-17T02:16:53.023Z,0.65
2023-01-17T02:19:29.700Z,0.95
2023-01-17T02:22:12.069Z,1.75
2023-01-17T02:24:48.192Z,2.13
2023-01-17T02:27:34.433Z,1.63
2023-01-17T02:30:25.323Z,1.70
2023-01-17T02:33:02.173Z,1.02
2023-01-17T02:35:34.532Z,1.55
2023-01-17T02:38:07.211Z,0.60
2023-01-17T02:40:37.505Z,1.85
2023-01-17T02:43:07.215Z,1.10
2023-01-17T02:45:34.499Z,0.73
2023-01-17T02:48:01.775Z,0.90
2023-01-17T02:50:36.280Z,1.42
2023-01-17T02:53:12.060Z,0.80
2023-01-17T02:55:58.016Z,0.98
2023-01-17T02:58:28.249Z,0.95
2023-01-17T03:01:04.995Z,1.88
2023-01-17T03:03:51.147Z,2.13
2023-01-17T03:06:21.329Z,0.90
2023-01-17T03:08:49.657Z,2.13
2023-01-17T03:11:16.983Z,1.08
2023-01-17T03:13:44.461Z,1.83
2023-01-17T03:16:15.707Z,1.58
2023-01-17T03:18:42.861Z,1.23
2023-01-17T03:21:09.962Z,1.00
2023-01-17T03:23:37.568Z,1.55
2023-01-17T03:26:04.728Z,0.60
2023-01-17T03:28:31.993Z,0.60
2023-01-17T03:30:59.294Z,0.77
2023-01-17T03:33:26.525Z,1.95
2023-01-17T03:35:54.659Z,1.00
2023-01-17T03:38:22.004Z,0.93
2023-01-17T03:40:51.845Z,1.52
2023-01-17T03:43:19.049Z,1.63
2023-01-17T03:45:49.345Z,1.48
2023-01-17T03:48:16.553Z,0.68
2023-01-17T03:50:43.665Z,1.55
2023-01-17T03:53:11.023Z,2.03
2023-01-17T03:55:38.147Z,1.42
2023-01-17T03:58:05.986Z,3.90
2023-01-17T04:00:33.152Z,1.00
2023-01-17T04:03:00.333Z,1.00
2023-01-17T04:05:27.556Z,1.52
2023-01-17T04:07:54.768Z,1.10
2023-01-17T04:10:21.996Z,0.90
2023-01-17T04:12:49.166Z,1.38
2023-01-17T04:15:16.367Z,2.05
2023-01-17T04:17:43.593Z,0.70
2023-01-17T04:20:19.220Z,1.48
2023-01-17T04:22:46.348Z,1.55
2023-01-17T04:25:13.556Z,0.57
2023-01-17T04:27:40.852Z,2.35
2023-01-17T04:30:08.266Z,1.30
2023-01-17T04:32:35.378Z,0.60
2023-01-17T04:35:03.064Z,1.15
2023-01-17T04:37:30.231Z,0.63
2023-01-17T04:39:57.374Z,1.08
2023-01-17T04:42:24.522Z,0.73
2023-01-17T04:44:51.683Z,0.77
2023-01-17T04:47:18.816Z,6.30
2023-01-17T04:49:45.998Z,2.70
2023-01-17T04:52:13.188Z,0.82
2023-01-17T04:54:40.443Z,1.05
2023-01-17T04:57:07.801Z,0.95
2023-01-17T04:59:35.001Z,3.35
2023-01-17T05:02:02.346Z,1.00
2023-01-17T05:04:29.494Z,0.90
2023-01-17T05:06:56.625Z,1.33
2023-01-17T05:09:23.937Z,0.75
2023-01-17T05:11:51.220Z,1.83
2023-01-17T05:14:18.400Z,1.02
2023-01-17T05:16:45.477Z,0.90
2023-01-17T05:19:13.068Z,3.45
2023-01-17T05:21:40.185Z,0.93
2023-01-17T05:24:07.533Z,1.27
2023-01-17T05:26:34.757Z,2.00
2023-01-17T05:29:02.969Z,1.65
2023-01-17T05:31:30.150Z,2.75
2023-01-17T05:33:57.351Z,0.90
2023-01-17T05:36:24.476Z,1.67
2023-01-17T05:38:51.726Z,2.42
2023-01-17T05:41:18.879Z,1.60
2023-01-17T05:43:46.065Z,1.83
2023-01-17T05:46:13.313Z,2.75
2023-01-17T05:48:40.518Z,0.77
2023-01-17T05:51:07.673Z,2.78
2023-01-17T05:53:35.848Z,3.15
2023-01-17T05:56:03.021Z,5.40
2023-01-17T05:58:30.375Z,1.73
2023-01-17T06:00:57.659Z,1.58
2023-01-17T06:03:24.907Z,1.88
2023-01-17T06:05:52.126Z,2.72
2023-01-17T06:08:19.318Z,5.40
2023-01-17T06:10:46.570Z,1.92
2023-01-17T06:13:15.361Z,2.42
2023-01-17T06:15:43.060Z,1.38
2023-01-17T06:18:11.476Z,0.75
2023-01-17T06:20:39.569Z,1.55
2023-01-17T06:23:07.906Z,1.52
2023-01-17T06:25:45.604Z,1.10
2023-01-17T06:28:14.425Z,4.05
2023-01-17T06:30:41.797Z,2.63
2023-01-17T06:33:08.955Z,2.50
2023-01-17T06:35:38.251Z,1.83
2023-01-17T06:38:05.886Z,2.97
2023-01-17T06:40:33.358Z,1.20
2023-01-17T06:43:01.856Z,4.32
2023-01-17T06:45:29.966Z,1.48
2023-01-17T06:47:59.233Z,2.25
2023-01-17T06:50:26.747Z,2.03
2023-01-17T06:52:57.748Z,1.98
2023-01-17T06:55:25.218Z,1.70
2023-01-17T06:57:52.451Z,1.70
2023-01-17T07:00:19.830Z,1.15
2023-01-17T07:02:49.582Z,4.82
2023-01-17T07:05:17.297Z,2.08
2023-01-17T07:07:45.025Z,3.10
2023-01-17T07:10:13.166Z,4.47
2023-01-17T07:12:40.341Z,4.43
2023-01-17T07:15:07.827Z,1.13
2023-01-17T07:17:35.620Z,1.27
2023-01-17T07:20:02.822Z,4.25
2023-01-17T07:22:30.153Z,1.02
2023-01-17T07:24:58.812Z,2.53
2023-01-17T07:27:27.750Z,5.10
2023-01-17T07:29:54.995Z,1.20
2023-01-17T07:32:22.250Z,1.10
2023-01-17T07:34:51.007Z,1.98
2023-01-17T07:37:19.954Z,3.28
2023-01-17T07:39:47.469Z,1.08
2023-01-17T07:42:14.628Z,1.10
2023-01-17T07:44:44.068Z,1.23
2023-01-17T07:47:11.721Z,3.70
2023-01-17T07:49:39.222Z,1.65
2023-01-17T07:52:09.824Z,1.92
2023-01-17T07:54:37.077Z,2.20
2023-01-17T07:57:04.430Z,1.77
2023-01-17T07:59:33.783Z,2.30
2023-01-17T08:02:01.110Z,0.88
2023-01-17T08:04:34.641Z,0.82
2023-01-17T08:07:02.546Z,4.22
2023-01-17T08:09:29.823Z,1.50
2023-01-17T08:11:57.003Z,2.15
2023-01-17T08:14:24.246Z,1.42
2023-01-17T08:16:51.449Z,2.00
2023-01-17T08:19:18.848Z,1.65
2023-01-17T08:21:46.162Z,2.03
2023-01-17T08:24:13.804Z,1.73
2023-01-17T08:26:41.082Z,0.80
2023-01-17T08:29:08.329Z,2.00
2023-01-17T08:31:36.766Z,1.27
2023-01-17T08:34:04.121Z,2.72
2023-01-17T08:36:31.590Z,0.88
2023-01-17T08:39:01.549Z,2.15
2023-01-17T08:41:28.722Z,2.15
2023-01-17T08:43:55.851Z,1.73
2023-01-17T08:46:23.107Z,1.92
2023-01-17T08:48:55.808Z,3.45
2023-01-17T08:51:26.359Z,1.40
2023-01-17T08:53:54.232Z,0.82
2023-01-17T08:56:21.536Z,1.73
2023-01-17T08:58:48.699Z,1.50
2023-01-17T09:01:16.001Z,2.33
2023-01-17T09:03:43.254Z,0.90
2023-01-17T09:06:11.705Z,2.90
2023-01-17T09:08:39.202Z,1.60
2023-01-17T09:11:07.383Z,1.15
2023-01-17T09:13:35.042Z,1.50
2023-01-17T09:16:02.768Z,1.05
2023-01-17T09:18:30.706Z,1.23
2023-01-17T09:20:59.429Z,1.30
2023-01-17T09:23:28.009Z,1.95
2023-01-17T09:25:55.597Z,0.70
2023-01-17T09:28:22.773Z,1.35
2023-01-17T09:30:50.244Z,2.30
2023-01-17T09:33:17.822Z,1.63
2023-01-17T09:35:45.827Z,2.47
2023-01-17T09:38:13.411Z,2.10
2023-01-17T09:40:43.898Z,0.63
2023-01-17T09:43:19.100Z,0.65
2023-01-17T09:45:46.280Z,1.00
2023-01-17T09:48:18.120Z,0.77
2023-01-17T09:50:48.977Z,0.90
2023-01-17T09:53:18.535Z,0.75
2023-01-17T09:55:49.090Z,1.25
2023-01-17T09:58:42.696Z,2.25
2023-01-17T10:01:28.232Z,1.33
2023-01-17T10:03:55.814Z,0.90
2023-01-17T10:06:23.050Z,0.98
2023-01-17T10:09:03.742Z,0.80
2023-01-17T10:11:33.950Z,2.22
2023-01-17T10:14:14.530Z,1.27
2023-01-17T10:17:01.031Z,3.00
2023-01-17T10:19:47.230Z,1.10
2023-01-17T10:22:33.176Z,0.82
2023-01-17T10:25:19.040Z,2.13
2023-01-17T10:27:55.233Z,4.10
2023-01-17T10:30:24.347Z,1.67
2023-01-17T10:32:51.534Z,2.03
2023-01-17T10:35:24.848Z,2.72
2023-01-17T10:37:56.884Z,2.67
2023-01-17T10:40:35.099Z,1.20
2023-01-17T10:43:05.786Z,2.35
2023-01-17T10:45:36.935Z,1.70
2023-01-17T10:48:13.673Z,1.92
2023-01-17T10:50:47.153Z,1.63
2023-01-17T10:55:53.364Z,1.10
2023-01-17T10:58:20.635Z,2.88
2023-01-17T11:00:54.040Z,0.55
2023-01-17T11:03:21.827Z,4.28
2023-01-17T11:06:08.347Z,2.10
2023-01-17T11:08:53.198Z,0.95
2023-01-17T11:11:31.003Z,1.73
2023-01-17T11:14:06.619Z,2.03
2023-01-17T11:16:35.903Z,1.55
2023-01-17T11:19:08.707Z,2.33
2023-01-17T11:21:37.909Z,2.47
2023-01-17T11:24:12.771Z,0.82
2023-01-17T11:26:47.421Z,2.35
2023-01-17T11:29:23.667Z,1.52
2023-01-17T11:31:50.834Z,9.07
2023-01-17T11:34:19.319Z,1.48
2023-01-17T11:36:46.702Z,5.88
2023-01-17T11:39:19.971Z,1.92
2023-01-17T11:41:47.932Z,1.17
2023-01-17T11:44:28.951Z,5.78
2023-01-17T11:47:17.091Z,1.92
2023-01-17T11:49:45.478Z,1.15
2023-01-17T11:52:22.535Z,6.82
2023-01-17T11:54:50.090Z,1.67
2023-01-17T11:57:25.727Z,2.20
2023-01-17T11:59:59.744Z,5.00
2023-01-17T12:02:55.831Z,1.90
2023-01-17T12:05:23.558Z,1.60
2023-01-17T12:07:58.032Z,2.28
2023-01-17T12:10:28.135Z,1.48
2023-01-17T12:13:28.158Z,1.02
2023-01-17T12:16:32.814Z,1.55
2023-01-17T12:19:18.931Z,1.05
2023-01-17T12:22:11.553Z,1.77
2023-01-17T12:24:47.555Z,2.30
2023-01-17T12:27:26.926Z,0.90
2023-01-17T12:30:12.924Z,2.75
2023-01-17T12:33:12.750Z,2.53
2023-01-17T12:35:50.956Z,2.08
2023-01-17T12:38:32.197Z,5.70
2023-01-17T12:41:26.589Z,4.28
2023-01-17T12:43:58.538Z,0.80
2023-01-17T12:46:29.900Z,0.55
2023-01-17T12:48:59.424Z,0.90
2023-01-17T12:51:29.813Z,1.27
2023-01-17T12:54:02.672Z,3.67
2023-01-17T12:56:32.843Z,1.52
2023-01-17T12:59:19.080Z,0.70
2023-01-17T13:01:59.624Z,3.08
2023-01-17T13:04:57.031Z,4.40
2023-01-17T13:07:31.168Z,1.02
2023-01-17T13:10:04.140Z,2.60
2023-01-17T13:12:33.292Z,2.10
2023-01-17T13:15:03.914Z,1.83
2023-01-17T13:17:45.066Z,0.75
2023-01-17T13:20:31.908Z,3.40
2023-01-17T13:23:04.231Z,2.22
2023-01-17T13:25:31.883Z,3.17
2023-01-17T13:28:13.639Z,3.13
2023-01-17T13:30:47.128Z,2.53
2023-01-17T13:33:26.777Z,4.68
2023-01-17T13:35:58.162Z,9.13
2023-01-17T13:38:36.336Z,10.60
2023-01-17T13:41:22.349Z,2.78
2023-01-17T13:44:08.471Z,1.90
2023-01-17T13:46:54.449Z,9.93
2023-01-17T13:49:23.800Z,6.95
2023-01-17T13:52:12.356Z,5.15
2023-01-17T13:54:47.061Z,9.05
2023-01-17T13:57:29.346Z,1.65
2023-01-17T13:59:57.732Z,4.97
2023-01-17T14:02:33.967Z,9.73
2023-01-17T14:05:12.188Z,11.48
2023-01-17T14:07:50.111Z,7.88
2023-01-17T14:10:26.503Z,6.93
2023-01-17T14:12:55.801Z,9.18
2023-01-17T14:15:24.132Z,8.82
2023-01-17T14:17:52.919Z,5.72
2023-01-17T14:20:26.091Z,1.10
2023-01-17T14:22:55.549Z,2.45
2023-01-17T14:25:28.603Z,1.35
2023-01-17T14:27:57.807Z,0.85
2023-01-17T14:30:36.843Z,2.15
2023-01-17T14:33:10.429Z,5.15
2023-01-17T14:35:39.562Z,5.68
2023-01-17T14:38:16.792Z,4.53
2023-01-17T14:40:50.055Z,5.53
2023-01-17T14:43:20.036Z,3.47
2023-01-17T14:45:47.448Z,8.30
2023-01-17T14:48:14.809Z,3.97
2023-01-17T14:50:42.943Z,4.05
2023-01-17T14:53:13.361Z,9.48
2023-01-17T14:55:51.863Z,7.90
2023-01-17T14:58:19.149Z,4.43
2023-01-17T15:00:47.073Z,5.60
2023-01-17T15:03:14.542Z,6.88
2023-01-17T15:05:42.744Z,7.90
2023-01-17T15:08:14.386Z,6.68
2023-01-17T15:10:47.471Z,9.65
2023-01-17T15:13:18.127Z,8.68
2023-01-17T15:15:45.463Z,10.38
2023-01-17T15:18:15.654Z,9.30
2023-01-17T15:20:45.982Z,4.82
2023-01-17T15:23:18.335Z,8.95
2023-01-17T15:25:47.680Z,5.63
2023-01-17T15:28:15.622Z,13.25
2023-01-17T15:31:00.869Z,3.80
2023-01-17T15:33:28.225Z,2.60
2023-01-17T15:36:06.444Z,9.35
2023-01-17T15:38:39.097Z,9.18
2023-01-17T15:41:14.286Z,2.75
2023-01-17T15:43:42.015Z,10.15
2023-01-17T15:46:21.285Z,6.97
2023-01-17T15:48:48.451Z,22.95
2023-01-17T15:51:30.135Z,18.70
2023-01-17T15:53:57.320Z,10.85
2023-01-17T15:56:31.779Z,15.68
2023-01-17T15:59:17.971Z,4.75
2023-01-17T16:01:53.102Z,5.28
2023-01-17T16:04:33.784Z,5.10
2023-01-17T16:07:20.955Z,4.75
2023-01-17T16:09:48.756Z,4.70
2023-01-17T16:12:16.008Z,7.78
2023-01-17T16:14:59.560Z,4.47
2023-01-17T16:17:31.755Z,11.27
2023-01-17T16:19:58.937Z,9.48
2023-01-17T16:22:27.006Z,7.28
2023-01-17T16:24:56.906Z,7.20
2023-01-17T16:27:24.066Z,10.82
2023-01-17T16:29:51.253Z,8.18
2023-01-17T16:32:18.435Z,8.15
2023-01-17T16:34:45.635Z,8.88
2023-01-17T16:37:12.824Z,8.45
2023-01-17T16:39:40.028Z,13.13
2023-01-17T16:42:07.134Z,10.13
2023-01-17T16:44:34.319Z,9.57
2023-01-17T16:47:02.005Z,7.70
2023-01-17T16:49:32.399Z,10.48
2023-01-17T16:51:59.821Z,7.82
2023-01-17T16:54:27.400Z,12.80
2023-01-17T16:56:54.521Z,11.05
2023-01-17T16:59:21.716Z,7.95
2023-01-17T17:01:50.595Z,9.23
2023-01-17T17:04:17.823Z,7.95
2023-01-17T17:06:45.088Z,12.23
2023-01-17T17:09:12.298Z,14.15
2023-01-17T17:11:42.394Z,15.25
2023-01-17T17:14:09.823Z,14.60
2023-01-17T17:16:37.368Z,15.80
2023-01-17T17:19:05.925Z,17.83
2023-01-17T17:21:33.934Z,14.48
2023-01-17T17:24:01.951Z,15.18
2023-01-17T17:26:31.493Z,14.57
2023-01-17T17:28:58.889Z,12.00
2023-01-17T17:31:26.062Z,15.65
2023-01-17T17:33:53.591Z,11.63
2023-01-17T17:36:20.854Z,13.32
2023-01-17T17:38:50.903Z,8.38
2023-01-17T17:41:20.019Z,5.43
2023-01-17T17:43:47.285Z,12.00
2023-01-17T17:46:14.771Z,12.63
2023-01-17T17:48:42.120Z,7.35
2023-01-17T17:51:21.359Z,7.05
2023-01-17T17:53:48.507Z,9.18
2023-01-17T17:56:15.760Z,7.20
2023-01-17T17:58:44.274Z,7.82
2023-01-17T18:01:13.582Z,13.85
2023-01-17T18:03:43.524Z,12.85
2023-01-17T18:06:11.978Z,10.10
2023-01-17T18:08:39.513Z,5.97
2023-01-17T18:11:08.241Z,11.40
2023-01-17T18:13:35.390Z,13.13
2023-01-17T18:16:07.805Z,14.38
2023-01-17T18:18:36.255Z,13.18
2023-01-17T18:21:12.407Z,13.10
2023-01-17T18:23:40.474Z,16.77
2023-01-17T18:26:16.120Z,15.40
2023-01-17T18:28:43.231Z,18.38
2023-01-17T18:31:10.587Z,25.48
2023-01-17T18:33:39.578Z,29.17
2023-01-17T18:36:07.692Z,27.52
2023-01-17T18:38:38.677Z,25.00
2023-01-17T18:41:07.095Z,25.55
2023-01-17T18:43:34.630Z,25.70
2023-01-17T18:46:01.825Z,15.25
2023-01-17T18:48:29.109Z,19.42
2023-01-17T18:51:00.150Z,21.02
2023-01-17T18:53:27.398Z,26.52
2023-01-17T18:55:57.168Z,17.45
2023-01-17T18:58:27.649Z,18.33
2023-01-17T19:00:55.077Z,15.98
2023-01-17T19:03:31.663Z,18.60
2023-01-17T19:06:01.401Z,18.70
2023-01-17T19:08:30.050Z,17.25
2023-01-17T19:10:57.262Z,20.20
2023-01-17T19:13:24.475Z,25.05
2023-01-17T19:15:51.700Z,16.80
2023-01-17T19:18:18.952Z,20.83
2023-01-17T19:20:46.515Z,22.38
2023-01-17T19:23:13.651Z,30.95
2023-01-17T19:25:40.858Z,17.85
2023-01-17T19:28:08.395Z,18.63
2023-01-17T19:30:39.122Z,18.88
2023-01-17T19:33:06.590Z,16.27
2023-01-17T19:35:33.779Z,19.27
2023-01-17T19:38:00.947Z,18.02
2023-01-17T19:40:28.215Z,17.10
2023-01-17T19:42:56.325Z,19.55
2023-01-17T19:45:23.647Z,22.30
2023-01-17T19:47:52.958Z,28.38
2023-01-17T19:50:20.144Z,27.00
2023-01-17T19:52:47.284Z,18.88
2023-01-17T19:55:14.571Z,26.77
2023-01-17T19:57:41.679Z,30.85
2023-01-17T20:00:12.254Z,26.23
2023-01-17T20:02:39.782Z,27.63
2023-01-17T20:05:07.215Z,23.33
2023-01-17T20:07:34.737Z,24.55
2023-01-17T20:10:02.085Z,17.30
2023-01-17T20:12:29.236Z,18.90
2023-01-17T20:14:56.425Z,15.25
2023-01-17T20:17:26.302Z,19.42
2023-01-17T20:19:53.461Z,20.13
2023-01-17T20:22:21.520Z,23.02
2023-01-17T20:24:48.853Z,20.42
2023-01-17T20:27:17.528Z,18.60
2023-01-17T20:29:44.693Z,19.27
2023-01-17T20:32:11.918Z,18.58
2023-01-17T20:34:39.051Z,18.70
2023-01-17T20:37:08.583Z,18.52
2023-01-17T20:39:38.923Z,16.67
2023-01-17T20:42:06.547Z,17.67
2023-01-17T20:44:34.574Z,16.85
2023-01-17T20:47:01.793Z,17.20
2023-01-17T20:49:28.973Z,12.02
2023-01-17T20:51:56.246Z,10.80
2023-01-17T20:54:23.596Z,10.93
2023-01-17T20:56:51.575Z,15.77
2023-01-17T20:59:20.155Z,19.52
2023-01-17T21:01:47.633Z,17.83
2023-01-17T21:04:15.108Z,16.67
2023-01-17T21:06:43.057Z,16.05
2023-01-17T21:09:14.647Z,21.17
2023-01-17T21:11:41.879Z,19.30
2023-01-17T21:14:09.181Z,18.15
2023-01-17T21:16:36.469Z,16.13
2023-01-17T21:19:03.860Z,12.90
2023-01-17T21:21:31.232Z,15.98
2023-01-17T21:23:59.358Z,18.55
2023-01-17T21:26:27.935Z,17.80
2023-01-17T21:28:55.677Z,15.85
2023-01-17T21:31:26.928Z,11.52
2023-01-17T21:33:54.160Z,14.20
2023-01-17T21:36:23.173Z,16.20
2023-01-17T21:38:52.142Z,11.48
2023-01-17T21:41:23.210Z,18.80
2023-01-17T21:43:54.382Z,15.52
2023-01-17T21:46:21.705Z,20.05
2023-01-17T21:48:48.999Z,17.05
2023-01-17T21:51:16.675Z,13.32
2023-01-17T21:53:43.866Z,16.25
2023-01-17T21:56:31.180Z,13.15
2023-01-17T21:58:58.740Z,14.60
2023-01-17T22:01:27.889Z,12.02
2023-01-17T22:03:59.918Z,19.13
2023-01-17T22:06:28.436Z,18.77
2023-01-17T22:08:56.121Z,13.38
2023-01-17T22:11:24.433Z,11.73
2023-01-17T22:13:52.160Z,13.73
2023-01-17T22:16:20.822Z,11.43
2023-01-17T22:18:48.402Z,11.93
2023-01-17T22:21:23.031Z,12.75
2023-01-17T22:23:54.585Z,13.10
2023-01-17T22:26:22.714Z,12.38
2023-01-17T22:28:49.857Z,13.68
2023-01-17T22:31:17.181Z,14.25
2023-01-17T22:33:45.642Z,11.38
2023-01-17T22:36:16.628Z,15.00
2023-01-17T22:38:44.175Z,15.98
2023-01-17T22:41:13.177Z,14.27
2023-01-17T22:43:41.957Z,14.27
2023-01-17T22:46:10.483Z,12.50
2023-01-17T22:48:38.212Z,12.25
2023-01-17T22:51:06.185Z,15.88
2023-01-17T22:53:33.342Z,13.85
2023-01-17T22:56:07.801Z,14.45
2023-01-17T22:58:35.569Z,10.80
2023-01-17T23:01:09.736Z,9.65
2023-01-17T23:03:37.072Z,11.25
2023-01-17T23:06:30.698Z,15.75
2023-01-17T23:11:46.193Z,9.75
2023-01-17T23:14:51.529Z,13.75
2023-01-17T23:17:37.347Z,16.33
2023-01-17T23:20:05.063Z,13.80
2023-01-17T23:22:32.501Z,12.90
2023-01-17T23:24:59.665Z,10.35
2023-01-17T23:27:56.397Z,13.30
2023-01-17T23:30:26.093Z,14.35
2023-01-17T23:32:55.135Z,14.05
2023-01-17T23:35:23.810Z,12.98
2023-01-17T23:38:09.477Z,14.13
2023-01-17T23:40:37.714Z,15.50
2023-01-17T23:43:23.209Z,17.90
2023-01-17T23:45:51.056Z,13.88
2023-01-17T23:48:18.473Z,14.82
2023-01-17T23:50:46.901Z,15.18
2023-01-17T23:53:32.999Z,14.88
2023-01-17T23:56:04.845Z,18.83
2023-01-17T23:58:33.933Z,13.18
